Time;durP1;ratioP1;P1;durP2;ratioP2;P2;SDS_P1;SDS_P2;PMS_P1;PMS_P2;Temp;Humidity;BMP_temperature;BMP_pressure;BME280_temperature;BME280_humidity;BME280_pressure;Samples;Min_cycle;Max_cycle;Signal;HPM_P1;HPM_P2
2022/03/20 00:01:18;;;;;;;27.17;18.27;;;4.00;99.90;;;;;;5029548;28;20174;-31
2022/03/20 00:03:44;;;;;;;27.67;17.43;;;4.10;99.90;;;;;;5012918;28;20222;-30
2022/03/20 00:06:10;;;;;;;25.70;17.60;;;4.00;99.90;;;;;;5030926;28;20214;-30
2022/03/20 00:08:36;;;;;;;25.17;17.10;;;4.00;99.90;;;;;;5013170;28;20192;-31
2022/03/20 00:11:02;;;;;;;25.93;17.53;;;4.00;99.90;;;;;;5012826;28;20183;-30
2022/03/20 00:13:30;;;;;;;25.43;16.80;;;4.00;99.90;;;;;;5012785;28;20182;-31
2022/03/20 00:15:57;;;;;;;24.40;16.87;;;4.00;99.90;;;;;;5012901;28;20240;-30
2022/03/20 00:18:25;;;;;;;23.60;17.13;;;3.90;99.90;;;;;;5013222;28;20225;-30
2022/03/20 00:20:59;;;;;;;23.17;16.87;;;3.90;99.90;;;;;;5029133;28;20186;-31
2022/03/20 00:23:26;;;;;;;26.27;16.37;;;3.90;99.90;;;;;;5012887;28;20192;-30
2022/03/20 00:25:53;;;;;;;23.20;17.10;;;3.90;99.90;;;;;;5029352;28;20256;-30
2022/03/20 00:28:20;;;;;;;25.30;17.30;;;3.90;99.90;;;;;;5030510;28;20266;-30
2022/03/20 00:30:47;;;;;;;23.10;16.67;;;3.90;99.90;;;;;;5030451;28;20226;-30
2022/03/20 00:33:14;;;;;;;26.67;17.90;;;3.90;99.90;;;;;;5012735;28;20225;-30
2022/03/20 00:35:40;;;;;;;22.77;16.20;;;3.90;99.90;;;;;;5029041;28;20183;-31
2022/03/20 00:38:07;;;;;;;24.63;17.00;;;3.80;99.90;;;;;;5029285;28;20246;-30
2022/03/20 00:40:34;;;;;;;24.03;16.80;;;3.90;99.90;;;;;;5029215;28;20171;-31
2022/03/20 00:43:00;;;;;;;23.53;16.13;;;3.80;99.90;;;;;;5030999;28;20210;-31
2022/03/20 00:45:28;;;;;;;24.73;16.20;;;3.80;99.90;;;;;;5032902;28;20198;-30
2022/03/20 00:47:54;;;;;;;23.77;17.10;;;3.80;99.90;;;;;;5016352;28;20193;-30
2022/03/20 00:50:21;;;;;;;25.80;17.60;;;3.80;99.90;;;;;;5032494;28;20182;-29
2022/03/20 00:52:47;;;;;;;27.03;17.77;;;3.80;99.90;;;;;;5032803;28;20210;-30
2022/03/20 00:55:13;;;;;;;23.77;17.53;;;3.80;99.90;;;;;;5016416;28;20204;-30
2022/03/20 00:57:39;;;;;;;26.47;18.43;;;3.80;99.90;;;;;;5032967;28;20178;-32
2022/03/20 01:00:06;;;;;;;24.93;17.40;;;3.80;99.90;;;;;;5032639;28;20190;-31
2022/03/20 01:02:44;;;;;;;26.60;19.27;;;3.80;99.90;;;;;;5033977;28;20233;-30
2022/03/20 01:05:10;;;;;;;27.03;18.10;;;3.70;99.90;;;;;;5032458;28;20371;-31
2022/03/20 01:07:37;;;;;;;24.77;17.70;;;3.70;99.90;;;;;;5033839;28;20171;-30
2022/03/20 01:10:07;;;;;;;27.37;18.70;;;3.70;99.90;;;;;;5015967;28;20179;-30
2022/03/20 01:12:36;;;;;;;26.87;18.47;;;3.60;99.90;;;;;;5015902;28;20793;-31
2022/03/20 01:15:04;;;;;;;26.10;17.50;;;3.60;99.90;;;;;;5015788;28;20682;-30
2022/03/20 01:17:30;;;;;;;26.17;18.40;;;3.60;99.90;;;;;;5015945;28;20260;-30
2022/03/20 01:19:56;;;;;;;26.07;18.83;;;3.60;99.90;;;;;;5031712;28;20222;-32
2022/03/20 01:22:21;;;;;;;26.83;19.13;;;3.60;99.90;;;;;;5015860;28;20210;-30
2022/03/20 01:24:47;;;;;;;25.73;18.17;;;3.60;99.90;;;;;;5015743;28;20202;-31
2022/03/20 01:27:13;;;;;;;26.77;18.57;;;3.60;99.90;;;;;;5032290;28;20183;-31
2022/03/20 01:29:39;;;;;;;29.20;18.57;;;3.60;99.90;;;;;;5015447;28;20194;-30
2022/03/20 01:32:05;;;;;;;25.33;17.63;;;3.60;99.90;;;;;;5015445;28;20209;-29
2022/03/20 01:34:31;;;;;;;29.23;18.93;;;3.60;99.90;;;;;;5015491;28;20289;-31
2022/03/20 01:36:58;;;;;;;27.17;18.80;;;3.70;99.90;;;;;;5015671;28;20332;-30
2022/03/20 01:39:24;;;;;;;27.97;18.90;;;3.60;99.90;;;;;;5031947;28;20175;-30
2022/03/20 01:41:50;;;;;;;28.70;17.47;;;3.60;99.90;;;;;;5032255;28;20277;-30
2022/03/20 01:44:16;;;;;;;23.27;16.97;;;3.40;99.90;;;;;;5033143;28;20285;-30
2022/03/20 01:46:42;;;;;;;25.87;18.53;;;3.30;99.90;;;;;;5015358;28;20197;-30
2022/03/20 01:49:08;;;;;;;28.10;19.00;;;3.20;99.90;;;;;;5032964;28;20174;-29
2022/03/20 01:54:23;;;;;;;25.70;17.50;;;3.10;99.90;;;;;;5002877;28;20264;-30
2022/03/20 01:56:49;;;;;;;26.40;18.10;;;3.10;99.90;;;;;;5031722;28;20182;-30
2022/03/20 01:59:16;;;;;;;28.63;18.43;;;3.00;99.90;;;;;;5031380;28;20269;-31
2022/03/20 02:01:42;;;;;;;27.70;18.47;;;2.90;99.90;;;;;;5031406;28;20629;-30
2022/03/20 02:04:15;;;;;;;31.03;19.50;;;2.90;99.90;;;;;;5014834;28;20202;-30
2022/03/20 02:06:42;;;;;;;28.93;19.17;;;2.90;99.90;;;;;;5014971;28;20662;-30
2022/03/20 02:09:09;;;;;;;29.40;19.53;;;2.90;99.90;;;;;;5015016;28;20484;-31
2022/03/20 02:11:35;;;;;;;29.60;20.23;;;2.90;99.90;;;;;;5031226;28;20209;-31
2022/03/20 02:14:02;;;;;;;27.97;18.00;;;2.90;99.90;;;;;;5014913;28;20733;-30
2022/03/20 02:16:29;;;;;;;28.10;19.07;;;2.90;99.90;;;;;;5031229;28;20182;-31
2022/03/20 02:18:55;;;;;;;29.93;19.40;;;2.90;99.90;;;;;;5014569;28;20182;-31
2022/03/20 02:21:39;;;;;;;27.30;18.37;;;2.90;99.90;;;;;;5031340;28;20696;-30
2022/03/20 02:24:27;;;;;;;27.60;19.43;;;2.90;99.90;;;;;;5014366;28;20278;-31
2022/03/20 02:27:09;;;;;;;29.23;19.03;;;2.90;99.90;;;;;;5031096;28;20183;-31
2022/03/20 02:29:36;;;;;;;27.20;18.63;;;2.90;99.90;;;;;;5014474;28;20269;-30
2022/03/20 02:32:04;;;;;;;31.87;20.17;;;3.00;99.90;;;;;;5031107;28;20234;-31
2022/03/20 02:34:31;;;;;;;27.10;18.40;;;3.10;99.90;;;;;;5032201;28;20187;-31
2022/03/20 02:36:58;;;;;;;33.57;19.27;;;3.10;99.90;;;;;;5031128;28;20174;-32
2022/03/20 02:39:24;;;;;;;29.70;18.87;;;3.10;99.90;;;;;;5030952;28;20190;-31
2022/03/20 02:41:51;;;;;;;26.73;18.47;;;3.20;99.90;;;;;;5030916;28;20232;-31
2022/03/20 02:44:18;;;;;;;29.50;19.20;;;3.20;99.90;;;;;;5030956;28;20686;-31
2022/03/20 02:46:44;;;;;;;29.53;18.63;;;3.30;99.90;;;;;;5032245;28;20212;-31
2022/03/20 02:49:11;;;;;;;26.00;18.33;;;3.40;99.90;;;;;;5030264;28;20179;-31
2022/03/20 02:51:37;;;;;;;26.97;17.50;;;3.40;99.90;;;;;;5030487;28;20210;-30
2022/03/20 02:54:04;;;;;;;26.70;18.57;;;3.50;99.90;;;;;;5030500;28;20198;-31
2022/03/20 02:56:32;;;;;;;28.23;17.90;;;3.40;99.90;;;;;;5030453;28;20182;-30
2022/03/20 02:58:59;;;;;;;26.07;18.20;;;3.40;99.90;;;;;;5014049;28;20237;-30
2022/03/20 03:01:24;;;;;;;26.37;18.13;;;3.40;99.90;;;;;;5013975;28;20186;-31
2022/03/20 03:03:53;;;;;;;28.30;18.00;;;3.40;99.90;;;;;;5031579;28;20209;-31
2022/03/20 03:06:19;;;;;;;25.63;18.30;;;3.20;99.90;;;;;;5013708;28;20236;-30
2022/03/20 03:11:31;;;;;;;29.23;19.33;;;3.10;99.90;;;;;;5029790;28;20256;-30
2022/03/20 03:15:18;;;;;;;28.90;18.77;;;3.00;99.90;;;;;;5031502;28;20206;-31
2022/03/20 03:16:42;;;;;;;29.00;19.10;;;3.00;99.90;;;;;;5029973;28;20294;-31
2022/03/20 03:19:08;;;;;;;26.97;18.50;;;3.00;99.90;;;;;;5029858;28;20285;-31
2022/03/20 03:21:34;;;;;;;32.30;20.60;;;3.00;99.90;;;;;;5030185;28;20197;-31
2022/03/20 03:24:00;;;;;;;27.67;18.83;;;3.00;99.90;;;;;;5029999;28;20216;-30
2022/03/20 03:26:25;;;;;;;28.23;18.63;;;3.00;99.90;;;;;;5030103;28;20261;-30
2022/03/20 03:28:51;;;;;;;30.17;19.47;;;3.10;99.90;;;;;;5031033;28;20186;-30
2022/03/20 03:31:17;;;;;;;31.00;19.60;;;3.20;99.90;;;;;;5030065;28;20174;-30
2022/03/20 03:36:27;;;;;;;32.03;20.70;;;3.10;99.90;;;;;;5029962;28;20192;-30
2022/03/20 03:38:53;;;;;;;27.03;19.20;;;3.20;99.90;;;;;;5013299;28;20663;-30
2022/03/20 03:41:19;;;;;;;28.37;19.57;;;3.20;99.90;;;;;;5013519;28;20194;-30
2022/03/20 03:43:45;;;;;;;30.93;19.60;;;3.20;99.90;;;;;;5029916;28;20195;-31
2022/03/20 03:46:11;;;;;;;27.43;18.97;;;3.20;99.90;;;;;;5013204;28;20251;-30
2022/03/20 03:48:37;;;;;;;27.37;18.77;;;3.10;99.90;;;;;;5029876;28;20179;-30
2022/03/20 03:51:03;;;;;;;25.97;18.90;;;3.10;99.90;;;;;;5029543;28;20190;-30
2022/03/20 03:53:29;;;;;;;27.43;19.27;;;3.10;99.90;;;;;;5031055;28;20186;-30
2022/03/20 03:55:55;;;;;;;27.30;19.13;;;3.10;99.90;;;;;;5029572;28;20185;-30
2022/03/20 03:58:21;;;;;;;27.80;19.00;;;3.10;99.90;;;;;;5013072;28;20187;-30
2022/03/20 04:00:46;;;;;;;27.47;18.10;;;3.10;99.90;;;;;;5029571;28;20182;-30
2022/03/20 04:03:12;;;;;;;27.77;19.90;;;3.00;99.90;;;;;;5030925;28;20189;-31
2022/03/20 04:05:38;;;;;;;28.63;19.37;;;3.00;99.90;;;;;;5029594;28;20292;-30
2022/03/20 04:08:08;;;;;;;29.80;20.30;;;3.00;99.90;;;;;;5013194;28;20190;-30
2022/03/20 04:10:34;;;;;;;26.80;18.60;;;2.90;99.90;;;;;;5012978;28;20185;-30
2022/03/20 04:13:00;;;;;;;31.37;19.77;;;2.80;99.90;;;;;;5029540;28;20224;-30
2022/03/20 04:15:26;;;;;;;27.97;19.20;;;2.80;99.90;;;;;;5029172;28;20206;-30
2022/03/20 04:17:52;;;;;;;28.67;19.10;;;2.80;99.90;;;;;;5014933;28;20178;-30
2022/03/20 04:20:19;;;;;;;30.17;18.23;;;2.70;99.90;;;;;;5033249;28;20182;-30
2022/03/20 04:25:29;;;;;;;28.50;19.83;;;2.60;99.90;;;;;;5033447;28;20206;-30
2022/03/20 04:27:56;;;;;;;27.37;19.30;;;2.60;99.90;;;;;;5016920;28;20261;-30
2022/03/20 04:30:26;;;;;;;30.30;19.40;;;2.60;99.90;;;;;;5016711;28;20220;-30
2022/03/20 04:32:54;;;;;;;27.27;19.33;;;2.70;99.90;;;;;;5034463;28;20214;-30
2022/03/20 04:35:24;;;;;;;27.53;19.43;;;2.80;99.90;;;;;;5016448;28;20212;-31
2022/03/20 04:37:52;;;;;;;28.63;19.90;;;2.90;99.90;;;;;;5017198;28;20210;-30
2022/03/20 04:40:18;;;;;;;30.37;19.97;;;2.90;99.90;;;;;;5032992;28;20288;-30
2022/03/20 04:42:43;;;;;;;29.33;19.30;;;3.00;99.90;;;;;;5016556;28;20277;-30
2022/03/20 04:45:11;;;;;;;30.37;20.10;;;3.00;99.90;;;;;;5016497;28;20211;-30
2022/03/20 04:58:36;;;;;;;29.33;19.63;;;3.00;99.90;;;;;;5034257;28;20196;-30
2022/03/20 05:01:02;;;;;;;27.90;19.37;;;2.90;99.90;;;;;;5015955;28;20178;-31
2022/03/20 05:03:31;;;;;;;28.53;19.30;;;2.90;99.90;;;;;;5032471;28;20182;-30
2022/03/20 05:05:57;;;;;;;28.77;20.13;;;2.90;99.90;;;;;;5032665;28;20186;-30
2022/03/20 05:08:23;;;;;;;32.70;21.30;;;3.00;99.90;;;;;;5016211;28;20197;-30
2022/03/20 05:13:34;;;;;;;28.43;19.27;;;3.00;99.90;;;;;;5032370;28;20659;-31
2022/03/20 05:15:59;;;;;;;30.63;19.53;;;3.00;99.90;;;;;;5015963;28;20190;-30
2022/03/20 05:18:26;;;;;;;28.90;18.97;;;3.10;99.90;;;;;;5032596;28;20553;-30
2022/03/20 05:20:52;;;;;;;26.33;19.50;;;3.10;99.90;;;;;;5015756;28;20277;-31
2022/03/20 05:23:23;;;;;;;30.00;19.13;;;3.10;99.90;;;;;;5032148;28;20183;-31
2022/03/20 05:25:49;;;;;;;30.53;19.33;;;3.10;99.90;;;;;;5032464;28;20637;-31
2022/03/20 05:28:16;;;;;;;26.67;19.07;;;3.10;99.90;;;;;;5016372;28;20273;-30
2022/03/20 05:30:43;;;;;;;26.93;18.77;;;3.10;99.90;;;;;;5032105;28;20193;-30
2022/03/20 05:33:14;;;;;;;30.50;20.20;;;3.10;99.90;;;;;;5033836;28;20213;-31
2022/03/20 05:35:40;;;;;;;28.47;20.07;;;3.00;99.90;;;;;;5033344;28;20543;-31
2022/03/20 05:38:10;;;;;;;28.23;20.53;;;3.00;99.90;;;;;;5031942;28;20197;-29
2022/03/20 05:40:40;;;;;;;31.57;20.33;;;3.00;99.90;;;;;;5015271;28;20177;-31
2022/03/20 05:43:09;;;;;;;30.00;19.63;;;3.00;99.90;;;;;;5015314;28;20189;-31
2022/03/20 05:45:41;;;;;;;27.73;19.63;;;3.00;99.90;;;;;;5032037;28;20211;-30
2022/03/20 05:48:10;;;;;;;29.27;19.50;;;3.00;99.90;;;;;;5015398;28;20178;-30
2022/03/20 05:50:36;;;;;;;29.13;20.27;;;3.10;99.90;;;;;;5031489;28;20182;-30
2022/03/20 05:53:02;;;;;;;29.50;20.30;;;3.10;99.90;;;;;;5031648;28;20268;-29
2022/03/20 05:58:15;;;;;;;30.57;21.13;;;3.20;99.90;;;;;;5031843;28;20185;-31
2022/03/20 06:00:41;;;;;;;31.37;20.13;;;3.20;99.90;;;;;;5031231;28;20171;-30
2022/03/20 06:03:09;;;;;;;30.33;20.27;;;3.30;99.90;;;;;;5031606;28;20179;-30
2022/03/20 06:05:36;;;;;;;27.60;18.43;;;3.30;99.90;;;;;;5015098;28;20211;-29
2022/03/20 06:08:01;;;;;;;88.30;40.43;;;3.20;99.90;;;;;;5014863;28;20182;-31
2022/03/20 06:10:28;;;;;;;47.57;27.43;;;3.30;99.90;;;;;;5031524;28;20197;-29
2022/03/20 06:12:54;;;;;;;30.13;20.40;;;3.20;99.90;;;;;;5014738;28;20210;-30
2022/03/20 06:15:19;;;;;;;30.33;20.57;;;3.20;99.90;;;;;;5030837;28;20210;-31
2022/03/20 06:17:46;;;;;;;34.03;21.33;;;3.20;99.90;;;;;;5031469;28;20245;-31
2022/03/20 06:20:14;;;;;;;29.27;21.03;;;3.20;99.90;;;;;;5031284;28;20325;-30
2022/03/20 06:22:41;;;;;;;33.47;22.07;;;3.20;99.90;;;;;;5014785;28;20227;-30
2022/03/20 06:25:08;;;;;;;29.13;20.70;;;3.30;99.90;;;;;;5031122;28;20198;-29
2022/03/20 06:27:45;;;;;;;31.90;21.87;;;3.20;99.90;;;;;;5031270;28;20190;-29
2022/03/20 06:30:13;;;;;;;29.07;20.17;;;3.30;99.90;;;;;;5014609;28;20283;-30
2022/03/20 06:32:40;;;;;;;29.33;20.00;;;3.30;99.90;;;;;;5014548;28;20217;-30
2022/03/20 06:35:07;;;;;;;31.57;21.50;;;3.30;99.90;;;;;;5014541;28;20286;-29
2022/03/20 06:37:38;;;;;;;30.50;20.83;;;3.30;99.90;;;;;;5031105;28;20206;-30
2022/03/20 06:40:05;;;;;;;29.70;20.67;;;3.40;99.90;;;;;;5030281;28;20175;-30
2022/03/20 06:42:31;;;;;;;30.13;20.53;;;3.50;99.90;;;;;;5030839;28;20210;-29
2022/03/20 06:45:05;;;;;;;31.03;21.27;;;3.60;99.90;;;;;;5030712;28;20665;-31
2022/03/20 06:47:33;;;;;;;30.00;21.53;;;3.70;99.90;;;;;;5030940;28;20194;-29
2022/03/20 06:50:00;;;;;;;27.13;19.63;;;3.80;99.90;;;;;;5031874;28;20266;-30
2022/03/20 06:52:29;;;;;;;29.40;20.07;;;3.80;99.90;;;;;;5030708;28;20221;-30
2022/03/20 06:54:57;;;;;;;30.23;21.53;;;3.80;99.90;;;;;;5031683;28;20198;-30
2022/03/20 06:57:23;;;;;;;33.33;21.27;;;3.70;99.90;;;;;;5030460;28;20185;-30
2022/03/20 06:59:49;;;;;;;31.60;21.50;;;3.80;99.90;;;;;;5016323;28;20195;-31
2022/03/20 07:02:18;;;;;;;34.57;21.93;;;3.90;99.90;;;;;;5010668;28;20183;-29
2022/03/20 07:04:47;;;;;;;35.30;22.20;;;4.00;99.90;;;;;;4994217;28;20204;-31
2022/03/20 07:07:19;;;;;;;29.80;20.63;;;4.20;99.90;;;;;;4994411;28;20253;-30
2022/03/20 07:09:45;;;;;;;28.33;20.40;;;4.30;99.90;;;;;;5010298;28;20172;-30
2022/03/20 07:12:12;;;;;;;33.93;21.60;;;4.40;99.90;;;;;;5010334;28;20203;-29
2022/03/20 07:14:39;;;;;;;31.30;20.80;;;4.50;99.90;;;;;;5010235;28;20211;-30
2022/03/20 07:17:10;;;;;;;32.43;22.87;;;4.60;99.90;;;;;;4994233;28;20214;-31
2022/03/20 07:19:43;;;;;;;30.97;21.77;;;4.70;99.90;;;;;;5011477;28;20670;-29
2022/03/20 07:22:10;;;;;;;28.20;21.33;;;4.90;99.90;;;;;;5012390;28;20259;-29
2022/03/20 07:24:39;;;;;;;29.63;21.13;;;5.10;99.90;;;;;;4995152;28;20213;-30
2022/03/20 07:29:50;;;;;;;27.53;20.40;;;5.20;99.90;;;;;;5025891;28;20560;-29
2022/03/20 07:32:16;;;;;;;29.63;21.70;;;5.30;99.90;;;;;;5032073;28;20202;-29
2022/03/20 07:34:45;;;;;;;30.87;20.97;;;5.40;99.90;;;;;;5016185;28;20217;-29
2022/03/20 07:37:16;;;;;;;29.30;20.93;;;5.50;99.90;;;;;;5033338;28;20198;-29
2022/03/20 07:39:47;;;;;;;28.73;20.97;;;5.40;99.90;;;;;;5033194;28;20159;-29
2022/03/20 07:42:13;;;;;;;28.47;20.60;;;5.50;99.90;;;;;;5032120;28;20174;-30
2022/03/20 07:44:42;;;;;;;28.67;21.10;;;5.50;99.90;;;;;;5030870;28;20209;-30
2022/03/20 07:47:08;;;;;;;28.50;20.67;;;5.60;99.90;;;;;;5029586;28;20283;-30
2022/03/20 07:49:38;;;;;;;29.27;20.50;;;5.70;99.90;;;;;;5029561;28;20224;-30
2022/03/20 07:52:05;;;;;;;29.23;20.53;;;5.70;99.90;;;;;;5028484;28;20298;-31
2022/03/20 07:54:32;;;;;;;30.23;21.40;;;5.80;99.90;;;;;;5026924;28;20273;-30
2022/03/20 07:56:58;;;;;;;30.27;20.27;;;5.90;99.90;;;;;;5026862;28;20193;-30
2022/03/20 07:59:24;;;;;;;28.83;20.57;;;6.00;99.90;;;;;;5013090;28;20188;-31
2022/03/20 08:01:50;;;;;;;28.10;20.17;;;6.10;99.90;;;;;;5013109;28;20180;-31
2022/03/20 08:04:16;;;;;;;28.97;21.17;;;6.30;99.90;;;;;;5029424;28;20199;-31
2022/03/20 08:06:42;;;;;;;25.73;19.63;;;6.40;99.90;;;;;;5030748;28;20178;-30
2022/03/20 08:09:08;;;;;;;29.90;20.80;;;6.50;99.90;;;;;;5030671;28;20204;-30
2022/03/20 08:11:34;;;;;;;29.70;21.70;;;6.60;99.90;;;;;;5013035;28;20260;-31
2022/03/20 08:14:02;;;;;;;28.53;21.17;;;6.60;99.90;;;;;;5028861;28;20218;-30
2022/03/20 08:16:29;;;;;;;28.17;21.47;;;6.70;99.90;;;;;;5030925;28;20191;-31
2022/03/20 08:18:56;;;;;;;25.87;19.97;;;6.80;99.90;;;;;;5029048;28;20725;-30
2022/03/20 08:21:22;;;;;;;28.97;21.83;;;7.00;99.90;;;;;;5030675;28;20184;-30
2022/03/20 08:23:49;;;;;;;28.90;21.50;;;7.20;99.90;;;;;;5012886;28;20207;-31
2022/03/20 08:26:14;;;;;;;27.93;20.57;;;7.40;99.90;;;;;;5030674;28;20259;-31
2022/03/20 08:28:42;;;;;;;26.87;20.70;;;7.70;99.90;;;;;;5029222;28;20276;-32
2022/03/20 08:31:09;;;;;;;28.43;20.60;;;8.00;99.90;;;;;;5029215;28;20635;-31
2022/03/20 08:33:35;;;;;;;27.60;21.00;;;8.10;99.90;;;;;;5029181;28;20210;-30
2022/03/20 08:36:02;;;;;;;27.80;21.77;;;8.10;99.90;;;;;;5029361;28;20267;-30
2022/03/20 08:38:28;;;;;;;29.50;22.53;;;8.00;99.90;;;;;;5029045;28;20193;-30
2022/03/20 08:40:55;;;;;;;29.10;21.37;;;8.00;99.90;;;;;;5030342;28;20174;-30
2022/03/20 08:43:21;;;;;;;27.30;20.77;;;8.00;99.90;;;;;;5012576;28;20194;-32
2022/03/20 08:45:47;;;;;;;31.17;22.03;;;8.10;99.90;;;;;;5029224;28;20189;-30
2022/03/20 08:48:13;;;;;;;27.73;19.97;;;8.00;99.90;;;;;;5012517;28;20189;-30
2022/03/20 08:50:39;;;;;;;26.40;20.53;;;8.10;99.90;;;;;;5028767;28;20236;-30
2022/03/20 08:53:05;;;;;;;29.17;21.93;;;8.10;99.90;;;;;;5029304;28;20217;-31
2022/03/20 08:55:34;;;;;;;31.07;21.37;;;8.20;99.90;;;;;;5028771;28;20209;-30
2022/03/20 08:58:00;;;;;;;28.10;21.93;;;8.20;99.90;;;;;;5011990;28;20246;-30
2022/03/20 09:00:26;;;;;;;29.33;22.37;;;8.30;99.90;;;;;;5010908;28;20183;-32
2022/03/20 09:02:53;;;;;;;28.17;21.03;;;8.30;99.90;;;;;;5012059;28;20182;-31
2022/03/20 09:05:20;;;;;;;27.57;21.00;;;8.50;99.90;;;;;;5032067;28;20202;-30
2022/03/20 09:07:49;;;;;;;29.03;21.17;;;8.60;99.90;;;;;;5032219;28;20179;-30
2022/03/20 09:10:16;;;;;;;27.57;20.57;;;8.60;99.90;;;;;;5033189;28;20183;-30
2022/03/20 09:12:43;;;;;;;27.33;20.83;;;8.60;99.90;;;;;;5028946;28;20225;-31
2022/03/20 09:15:13;;;;;;;28.57;21.40;;;8.60;99.90;;;;;;5022518;28;20214;-30
2022/03/20 09:21:03;;;;;;;28.47;20.93;;;8.50;99.90;;;;;;5034380;28;20179;-30
2022/03/20 09:23:29;;;;;;;26.50;20.57;;;8.60;99.90;;;;;;5035717;28;20163;-30
2022/03/20 09:25:55;;;;;;;30.37;22.43;;;8.60;99.90;;;;;;5018099;28;20182;-30
2022/03/20 09:28:21;;;;;;;27.13;21.30;;;8.60;99.90;;;;;;5034404;28;20175;-30
2022/03/20 09:30:48;;;;;;;26.30;20.23;;;8.60;99.90;;;;;;5034357;28;20182;-29
2022/03/20 09:33:14;;;;;;;26.63;19.83;;;8.70;99.90;;;;;;5017851;28;20238;-30
2022/03/20 09:35:40;;;;;;;27.17;20.60;;;8.70;99.90;;;;;;5034388;28;20238;-30
2022/03/20 09:38:09;;;;;;;27.30;21.10;;;8.80;99.90;;;;;;5018189;28;20209;-30
2022/03/20 09:40:37;;;;;;;31.43;25.03;;;8.90;99.90;;;;;;5017543;28;20185;-30
2022/03/20 09:43:04;;;;;;;27.33;22.13;;;8.70;99.90;;;;;;5017917;28;20280;-30
2022/03/20 09:45:31;;;;;;;28.77;22.50;;;8.70;99.90;;;;;;5035123;28;20194;-30
2022/03/20 09:47:57;;;;;;;28.93;22.63;;;8.60;99.90;;;;;;5034257;28;20202;-30
2022/03/20 09:50:24;;;;;;;30.33;22.00;;;8.70;99.90;;;;;;5013581;28;20245;-30
2022/03/20 09:52:50;;;;;;;26.40;20.40;;;8.70;99.90;;;;;;5028257;28;20199;-30
2022/03/20 09:55:16;;;;;;;31.20;24.40;;;8.80;99.90;;;;;;5011767;28;20213;-31
2022/03/20 09:57:42;;;;;;;28.87;22.73;;;8.90;99.90;;;;;;5011962;28;20178;-30
2022/03/20 10:00:14;;;;;;;32.90;25.70;;;8.90;99.90;;;;;;5014840;28;20778;-30
2022/03/20 10:02:40;;;;;;;29.53;23.23;;;8.90;99.90;;;;;;5031527;28;20186;-31
2022/03/20 10:05:09;;;;;;;30.63;23.27;;;9.10;99.90;;;;;;5031607;28;20203;-31
2022/03/20 10:07:43;;;;;;;29.87;22.03;;;9.20;99.90;;;;;;5014915;28;20186;-31
2022/03/20 10:10:17;;;;;;;27.83;20.90;;;9.40;99.90;;;;;;5030339;28;20693;-30
2022/03/20 10:12:49;;;;;;;34.73;27.33;;;9.50;99.90;;;;;;5014459;28;20248;-31
2022/03/20 10:15:32;;;;;;;29.20;22.97;;;9.80;99.90;;;;;;5013822;28;20207;-30
2022/03/20 10:18:20;;;;;;;28.93;22.60;;;10.10;99.90;;;;;;5031284;28;20171;-31
2022/03/20 10:21:00;;;;;;;28.80;20.93;;;10.40;99.90;;;;;;5014456;28;20190;-31
2022/03/20 10:23:30;;;;;;;30.83;23.13;;;10.70;99.90;;;;;;5032225;28;20177;-32
2022/03/20 10:25:57;;;;;;;28.63;20.80;;;11.00;99.90;;;;;;5014512;28;20179;-31
2022/03/20 10:28:23;;;;;;;55.93;45.53;;;11.20;99.90;;;;;;5031918;28;20195;-31
2022/03/20 10:31:00;;;;;;;27.23;20.77;;;11.30;99.90;;;;;;5014630;28;20179;-31
2022/03/20 10:33:26;;;;;;;43.63;37.10;;;11.40;99.90;;;;;;5030922;28;20209;-31
2022/03/20 10:36:15;;;;;;;43.50;31.73;;;11.60;99.90;;;;;;5030872;28;20171;-30
2022/03/20 10:38:43;;;;;;;31.77;24.83;;;11.80;99.90;;;;;;5032238;28;20171;-31
2022/03/20 10:41:23;;;;;;;28.63;21.70;;;12.00;99.90;;;;;;5014205;28;20181;-31
2022/03/20 10:43:51;;;;;;;31.57;23.13;;;12.20;99.90;;;;;;5014182;28;20248;-31
2022/03/20 10:46:26;;;;;;;25.50;20.23;;;12.50;99.90;;;;;;5030795;28;20190;-31
2022/03/20 10:48:55;;;;;;;27.10;20.93;;;12.90;99.90;;;;;;5031949;28;20184;-30
2022/03/20 10:51:41;;;;;;;26.77;20.70;;;13.10;99.90;;;;;;5008796;28;20179;-30
2022/03/20 10:54:12;;;;;;;27.03;21.37;;;13.40;99.90;;;;;;5021591;28;20202;-31
2022/03/20 10:56:51;;;;;;;25.27;19.53;;;13.40;99.90;;;;;;5013753;28;20206;-30
2022/03/20 10:59:17;;;;;;;29.47;20.70;;;13.50;99.90;;;;;;5012006;28;20197;-31
2022/03/20 11:01:44;;;;;;;26.20;20.93;;;13.50;99.90;;;;;;5025195;28;20226;-32
2022/03/20 11:04:11;;;;;;;24.10;18.83;;;13.40;99.90;;;;;;5011353;28;20294;-31
2022/03/20 11:06:39;;;;;;;25.73;21.00;;;13.50;99.90;;;;;;5030720;28;20175;-31
2022/03/20 11:09:05;;;;;;;26.67;20.90;;;13.60;99.90;;;;;;5013476;28;20261;-31
2022/03/20 11:11:33;;;;;;;25.27;20.57;;;13.70;99.90;;;;;;5030178;28;20323;-32
2022/03/20 11:14:00;;;;;;;23.87;19.20;;;13.70;99.90;;;;;;5013454;28;20206;-31
2022/03/20 11:16:28;;;;;;;28.10;20.23;;;13.90;99.90;;;;;;5013921;28;20225;-31
2022/03/20 11:18:56;;;;;;;26.27;19.87;;;14.10;99.90;;;;;;5030186;28;20178;-31
2022/03/20 11:21:24;;;;;;;24.27;19.20;;;14.40;99.90;;;;;;5031528;28;20228;-33
2022/03/20 11:23:55;;;;;;;24.67;19.53;;;14.50;99.90;;;;;;5029866;28;20209;-31
2022/03/20 11:26:23;;;;;;;25.77;20.17;;;14.70;99.90;;;;;;5013273;28;20187;-31
2022/03/20 11:28:55;;;;;;;24.83;19.63;;;15.00;99.90;;;;;;5039098;22;20237;-40
2022/03/20 11:31:21;;;;;;;24.43;18.87;;;15.10;99.90;;;;;;4989666;28;20203;-39
2022/03/20 11:33:49;;;;;;;25.10;19.47;;;15.30;99.90;;;;;;4971601;28;20188;-38
2022/03/20 11:36:15;;;;;;;22.73;17.73;;;15.50;99.90;;;;;;4978249;28;20599;-38
2022/03/20 11:38:41;;;;;;;25.73;18.83;;;15.60;99.90;;;;;;4993524;28;20242;-41
2022/03/20 11:41:17;;;;;;;20.57;16.70;;;15.70;99.90;;;;;;4991464;28;20184;-40
2022/03/20 11:44:05;;;;;;;23.40;17.97;;;15.70;99.90;;;;;;4986816;28;20225;-40
2022/03/20 11:46:33;;;;;;;24.17;18.47;;;15.70;99.90;;;;;;4966900;28;20195;-39
2022/03/20 11:49:14;;;;;;;24.43;18.40;;;15.90;99.90;;;;;;4968106;28;20266;-39
2022/03/20 11:51:55;;;;;;;22.97;18.03;;;16.10;99.90;;;;;;4967350;28;20190;-40
2022/03/20 11:54:29;;;;;;;22.83;17.47;;;16.10;99.90;;;;;;4986073;28;20184;-39
2022/03/20 11:56:54;;;;;;;21.17;16.23;;;16.30;99.90;;;;;;4962914;28;20226;-44
2022/03/20 12:00:18;;;;;;;20.23;14.90;;;16.40;99.90;;;;;;4990779;28;20718;-39
2022/03/20 12:03:14;;;;;;;20.13;15.70;;;16.40;99.60;;;;;;4918384;29;20208;-38
2022/03/20 12:05:41;;;;;;;18.13;14.93;;;16.60;99.90;;;;;;4914460;29;20198;-38
2022/03/20 12:08:19;;;;;;;19.60;15.52;;;16.70;97.80;;;;;;4960088;28;20230;-39
2022/03/20 12:11:19;;;;;;;19.27;15.05;;;16.60;96.40;;;;;;4976224;28;20197;-38
2022/03/20 12:14:10;;;;;;;18.45;14.88;;;16.50;96.30;;;;;;4983231;28;20199;-38
2022/03/20 12:16:48;;;;;;;20.25;14.32;;;16.30;97.30;;;;;;4972404;28;20176;-38
2022/03/20 12:19:16;;;;;;;17.43;14.03;;;16.10;97.10;;;;;;4982783;28;20218;-39
2022/03/20 12:21:59;;;;;;;16.45;12.68;;;16.30;97.30;;;;;;4983164;28;20644;-40
2022/03/20 12:24:34;;;;;;;18.42;13.77;;;16.60;97.30;;;;;;4971916;28;20188;-41
2022/03/20 12:27:29;;;;;;;18.48;13.80;;;16.90;97.50;;;;;;4976486;28;20202;-43
2022/03/20 12:30:15;;;;;;;15.80;12.57;;;17.10;95.50;;;;;;4990363;28;20317;-41
2022/03/20 12:32:47;;;;;;;20.10;13.45;;;17.40;96.30;;;;;;4960372;28;20227;-39
2022/03/20 12:35:22;;;;;;;16.30;13.35;;;17.60;95.10;;;;;;4958728;28;20180;-38
2022/03/20 12:37:48;;;;;;;18.75;13.27;;;17.50;94.40;;;;;;4955837;28;20295;-41
2022/03/20 12:40:28;;;;;;;17.00;12.02;;;17.60;95.20;;;;;;4959820;28;20183;-39
2022/03/20 12:43:07;;;;;;;20.15;13.85;;;18.00;94.70;;;;;;4972215;28;20198;-38
2022/03/20 12:45:41;;;;;;;17.13;12.90;;;18.20;93.50;;;;;;4981563;28;20180;-39
2022/03/20 12:48:10;;;;;;;17.17;12.77;;;18.50;94.60;;;;;;4957338;28;20287;-38
2022/03/20 12:50:43;;;;;;;19.40;14.10;;;18.60;92.50;;;;;;4961578;28;20272;-39
2022/03/20 12:53:18;;;;;;;16.00;11.05;;;18.80;92.40;;;;;;4975370;28;20246;-39
2022/03/20 12:55:55;;;;;;;14.55;11.13;;;19.00;91.90;;;;;;4960352;28;20252;-38
2022/03/20 12:58:22;;;;;;;13.18;10.35;;;19.10;90.70;;;;;;4962289;28;20227;-39
2022/03/20 13:00:48;;;;;;;12.93;10.63;;;19.20;91.30;;;;;;4981043;28;20175;-38
2022/03/20 13:03:15;;;;;;;15.05;10.88;;;19.40;91.00;;;;;;4978833;28;20314;-38
2022/03/20 13:05:58;;;;;;;14.90;10.90;;;19.50;90.00;;;;;;4962922;28;20235;-39
2022/03/20 13:08:24;;;;;;;14.73;10.75;;;19.20;87.60;;;;;;4977877;28;20204;-38
2022/03/20 13:10:52;;;;;;;15.70;11.32;;;19.40;89.00;;;;;;4964519;28;20180;-41
2022/03/20 13:13:23;;;;;;;14.20;10.93;;;19.40;87.30;;;;;;4973719;28;20243;-39
2022/03/20 13:15:51;;;;;;;14.55;10.70;;;19.40;88.20;;;;;;4977638;28;20189;-38
2022/03/20 13:18:23;;;;;;;17.02;12.10;;;19.30;87.40;;;;;;4959028;28;20232;-39